Fujimaru — JG4781 — position and weather

sailwx.info

Track history (hours):
 
Tides and Currents Weather Stations Pressure Air Temp Water Temp Dewpoint Dewpoint Depression Visibility Wind Speed Wind Dir Waves Ship Positions

Fujimaru

Last reported at 2018-Feb-20 07:29 UTC. Time now 2018-Feb-20 07:30 UTC.
Position N 35°25' E 139°41'.

Length 35 m.

Type: Tug. MMSI: 431100382.

Date/timePositionNaut miles runAvg speedWind from/ knotsBaromVisibWave heightAir tempDewpointWater temp
2018-Feb-20 07:29N 35°25' E 139°41'0 0.0
2018-Feb-20 06:59N 35°25' E 139°41'0 0.0
2018-Feb-20 06:29N 35°25' E 139°41'2 4.0
2018-Feb-20 06:00N 35°23' E 139°41'5 9.5
2018-Feb-20 05:30N 35°19' E 139°39'1 1.9
2018-Feb-20 04:57N 35°18' E 139°38'0 0.2
2018-Feb-20 04:28N 35°18' E 139°38'0 0.1
2018-Feb-20 04:00N 35°18' E 139°38'0 0.1
2018-Feb-20 03:27N 35°18' E 139°38'0 0.0
2018-Feb-20 03:00N 35°18' E 139°38'0 0.2
2018-Feb-20 02:29N 35°18' E 139°38'1 1.6
2018-Feb-20 02:00N 35°19' E 139°39'0 0.1
2018-Feb-20 01:30N 35°19' E 139°39'1 1.0
2018-Feb-20 01:00N 35°19' E 139°39'3 5.6
2018-Feb-20 00:29N 35°21' E 139°41'4 7.3
2018-Feb-19 23:58N 35°25' E 139°41'0 0.0
2018-Feb-19 23:25N 35°25' E 139°41'0 0.0
2018-Feb-19 22:58N 35°25' E 139°41'0 0.0
2018-Feb-19 22:25N 35°25' E 139°41'0 0.0
2018-Feb-19 21:58N 35°25' E 139°41'0 0.0
2018-Feb-19 21:25N 35°25' E 139°41'0 0.0
2018-Feb-19 20:58N 35°25' E 139°41'0 0.0
2018-Feb-19 20:25N 35°25' E 139°41'0 0.0
2018-Feb-19 19:58N 35°25' E 139°41'0 0.0
2018-Feb-19 19:28N 35°25' E 139°41'0 0.0
2018-Feb-19 18:58N 35°25' E 139°41'0 0.0
2018-Feb-19 18:28N 35°25' E 139°41'0 0.0
2018-Feb-19 17:58N 35°25' E 139°41'0 0.0
2018-Feb-19 17:28N 35°25' E 139°41'0 0.0
2018-Feb-19 16:58N 35°25' E 139°41'0 0.0
2018-Feb-19 16:28N 35°25' E 139°41'0 0.0
2018-Feb-19 15:58N 35°25' E 139°41'0 0.0
2018-Feb-19 15:28N 35°25' E 139°41'0 0.0
2018-Feb-19 14:58N 35°25' E 139°41'0 0.0
2018-Feb-19 14:28N 35°25' E 139°41'0 0.0
2018-Feb-19 14:01N 35°25' E 139°41'0 0.0
2018-Feb-19 13:31N 35°25' E 139°41'0 0.8
2018-Feb-19 13:00N 35°25' E 139°41'611.5
2018-Feb-19 12:30N 35°23' E 139°48'5 8.5
2018-Feb-19 11:58N 35°22' E 139°53'0 0.4
2018-Feb-19 11:27N 35°22' E 139°53'1 2.3
2018-Feb-19 10:49N 35°22' E 139°51'0 0.4
2018-Feb-19 10:29N 35°22' E 139°51'1 2.0
2018-Feb-19 10:00N 35°22' E 139°52'0 0.5
2018-Feb-19 09:28N 35°22' E 139°53'0 0.0
2018-Feb-19 08:49N 35°22' E 139°53'0 0.0
2018-Feb-19 08:22N 35°22' E 139°53'0 0.0
2018-Feb-19 07:55N 35°22' E 139°53'0 0.1
2018-Feb-19 07:10N 35°22' E 139°53'0 0.0
2018-Feb-19 06:55N 35°22' E 139°53'0 0.1
2018-Feb-19 06:19N 35°22' E 139°53'0 0.1
2018-Feb-19 06:00N 35°22' E 139°53'1 1.1
2018-Feb-19 05:30N 35°22' E 139°52'0 0.7
2018-Feb-19 04:53N 35°22' E 139°52'2 5.5
2018-Feb-19 04:27N 35°24' E 139°49'1 2.7
2018-Feb-19 03:59N 35°24' E 139°48'0 0.0
2018-Feb-19 03:30N 35°24' E 139°48'0 0.1
2018-Feb-19 03:00N 35°24' E 139°48'2 4.7
2018-Feb-19 02:30N 35°23' E 139°45'4 8.7
2018-Feb-19 02:00N 35°20' E 139°41'2 4.7
2018-Feb-19 01:29N 35°18' E 139°39'2 3.7
2018-Feb-19 00:59N 35°20' E 139°40'4 8.3
2018-Feb-19 00:30N 35°24' E 139°39'1 1.2
2018-Feb-18 23:57N 35°24' E 139°38'0 0.1
2018-Feb-18 23:30N 35°24' E 139°38'0 0.6
2018-Feb-18 22:52N 35°24' E 139°38'0 0.2
2018-Feb-18 22:29N 35°23' E 139°38'0 0.0
2018-Feb-18 22:00N 35°23' E 139°38'1 1.4
2018-Feb-18 21:30N 35°24' E 139°39'2 3.9
2018-Feb-18 20:58N 35°25' E 139°41'0 0.0
2018-Feb-18 20:28N 35°25' E 139°41'0 0.0
2018-Feb-18 19:58N 35°25' E 139°41'0 0.0
2018-Feb-18 19:28N 35°25' E 139°41'0 0.0
2018-Feb-18 18:58N 35°25' E 139°41'0 0.0
2018-Feb-18 18:28N 35°25' E 139°41'0 0.0
2018-Feb-18 17:58N 35°25' E 139°41'0 0.0
2018-Feb-18 17:25N 35°25' E 139°41'0 0.0
2018-Feb-18 16:58N 35°25' E 139°41'0 0.0
2018-Feb-18 16:28N 35°25' E 139°41'0 0.0
2018-Feb-18 15:58N 35°25' E 139°41'0 0.0
2018-Feb-18 15:25N 35°25' E 139°41'0 0.0
2018-Feb-18 14:58N 35°25' E 139°41'0 0.0
2018-Feb-18 14:22N 35°25' E 139°41'0 0.0
2018-Feb-18 13:58N 35°25' E 139°41'0 0.0
2018-Feb-18 13:25N 35°25' E 139°41'0 0.0
2018-Feb-18 12:52N 35°25' E 139°41'0 0.0
2018-Feb-18 12:25N 35°25' E 139°41'0 0.0
2018-Feb-18 11:58N 35°25' E 139°41'0 0.0
2018-Feb-18 11:28N 35°25' E 139°41'0 0.0
2018-Feb-18 10:58N 35°25' E 139°41'0 0.0
2018-Feb-18 10:28N 35°25' E 139°41'0 0.0
2018-Feb-18 09:55N 35°25' E 139°41'0 0.0
2018-Feb-18 09:28N 35°25' E 139°41'0 0.0
2018-Feb-18 08:58N 35°25' E 139°41'0 0.0
2018-Feb-18 08:28N 35°25' E 139°41'0 0.0
2018-Feb-18 07:58N 35°25' E 139°41'0 0.0
2018-Feb-18 07:28N 35°25' E 139°41'0 0.0
2018-Feb-18 06:58N 35°25' E 139°41'1 2.7
2018-Feb-18 06:30N 35°24' E 139°42'3 5.2
2018-Feb-18 06:00N 35°24' E 139°39'2 3.1
2018-Feb-18 05:24N 35°24' E 139°41'0 0.5
2018-Feb-18 04:58N 35°24' E 139°41'0 0.9
2018-Feb-18 04:30N 35°23' E 139°40'2 3.4
2018-Feb-18 03:58N 35°25' E 139°41'0 0.0
2018-Feb-18 03:28N 35°25' E 139°41'0 0.0
2018-Feb-18 02:58N 35°25' E 139°41'0 0.0
2018-Feb-18 02:28N 35°25' E 139°41'0 0.0
2018-Feb-18 01:55N 35°25' E 139°41'0 0.0
2018-Feb-18 01:22N 35°25' E 139°41'0 0.0
2018-Feb-18 00:58N 35°25' E 139°41'0 0.0
2018-Feb-18 00:28N 35°25' E 139°41'0 0.0
2018-Feb-17 23:58N 35°25' E 139°41'0 0.0
2018-Feb-17 23:28N 35°25' E 139°41'0 0.0
2018-Feb-17 22:58N 35°25' E 139°41'0 0.0
2018-Feb-17 22:28N 35°25' E 139°41'0 0.0
2018-Feb-17 21:52N 35°25' E 139°41'0 0.0
2018-Feb-17 21:28N 35°25' E 139°41'0 0.0
2018-Feb-17 20:52N 35°25' E 139°41'0 0.0
2018-Feb-17 20:28N 35°25' E 139°41'0 0.0
2018-Feb-17 19:58N 35°25' E 139°41'0 0.0
2018-Feb-17 19:28N 35°25' E 139°41'0 0.0
2018-Feb-17 18:58N 35°25' E 139°41'0 0.0
2018-Feb-17 18:28N 35°25' E 139°41'0 0.0
2018-Feb-17 17:58N 35°25' E 139°41'0 0.0
2018-Feb-17 17:28N 35°25' E 139°41'0 0.0
2018-Feb-17 16:58N 35°25' E 139°41'0 0.0
2018-Feb-17 16:28N 35°25' E 139°41'0 0.0
2018-Feb-17 15:58N 35°25' E 139°41'0 0.0
2018-Feb-17 15:28N 35°25' E 139°41'0 0.0
2018-Feb-17 14:58N 35°25' E 139°41'0 0.0
2018-Feb-17 14:28N 35°25' E 139°41'0 0.0
2018-Feb-17 13:58N 35°25' E 139°41'0 0.0
2018-Feb-17 13:28N 35°25' E 139°41'0 0.0
2018-Feb-17 12:58N 35°25' E 139°41'0 0.0
2018-Feb-17 12:28N 35°25' E 139°41'0 0.0
2018-Feb-17 11:58N 35°25' E 139°41'0 0.0
2018-Feb-17 11:28N 35°25' E 139°41'0 0.0
2018-Feb-17 10:58N 35°25' E 139°41'0 0.0
2018-Feb-17 10:28N 35°25' E 139°41'0 0.0
2018-Feb-17 09:58N 35°25' E 139°41'0 0.0
2018-Feb-17 09:28N 35°25' E 139°41'1 2.7
2018-Feb-17 09:00N 35°24' E 139°42'2 4.8
2018-Feb-17 08:30N 35°23' E 139°39'0 0.1
2018-Feb-17 08:00N 35°23' E 139°39'2 4.5
2018-Feb-17 07:29N 35°25' E 139°41'0 0.0
2018-Feb-17 06:59N 35°25' E 139°41'0 0.0
2018-Feb-17 06:29N 35°25' E 139°41'0 0.0
2018-Feb-17 05:59N 35°25' E 139°41'0 0.0
2018-Feb-17 05:29N 35°25' E 139°41'0 0.0
2018-Feb-17 04:59N 35°25' E 139°41'0 0.0
2018-Feb-17 04:29N 35°25' E 139°41'0 0.0
2018-Feb-17 03:59N 35°25' E 139°41'0 0.0
2018-Feb-17 03:23N 35°25' E 139°41'0 0.0
2018-Feb-17 02:59N 35°25' E 139°41'0 0.0
2018-Feb-17 02:29N 35°25' E 139°41'0 0.0
2018-Feb-17 01:59N 35°25' E 139°41'0 0.0
2018-Feb-17 01:29N 35°25' E 139°41'0 0.0
2018-Feb-17 00:59N 35°25' E 139°41'0 0.0
2018-Feb-17 00:29N 35°25' E 139°41'0 0.0
2018-Feb-16 23:56N 35°25' E 139°41'0 0.0
2018-Feb-16 23:29N 35°25' E 139°41'0 0.0
2018-Feb-16 23:00N 35°25' E 139°41'5 9.8
2018-Feb-16 22:30N 35°23' E 139°46'5 8.4
2018-Feb-16 21:56N 35°22' E 139°52'0 0.1
2018-Feb-16 21:29N 35°22' E 139°52'1 1.7
2018-Feb-16 21:00N 35°23' E 139°51'2 4.5
2018-Feb-16 20:27N 35°24' E 139°49'1 1.6
2018-Feb-16 19:58N 35°24' E 139°48'1 3.0
2018-Feb-16 19:30N 35°23' E 139°49'3 4.9
2018-Feb-16 18:58N 35°22' E 139°52'0 0.2
2018-Feb-16 18:29N 35°22' E 139°52'1 3.0
2018-Feb-16 18:00N 35°23' E 139°50'5 9.0
2018-Feb-16 17:30N 35°23' E 139°45'4 7.1
2018-Feb-16 16:58N 35°25' E 139°41'0 0.0
2018-Feb-16 16:25N 35°25' E 139°41'0 0.0
2018-Feb-16 15:58N 35°25' E 139°41'0 0.0
2018-Feb-16 15:28N 35°25' E 139°41'0 0.0
2018-Feb-16 14:55N 35°25' E 139°41'0 0.0
2018-Feb-16 14:25N 35°25' E 139°41'0 0.0
2018-Feb-16 13:55N 35°25' E 139°41'0 0.0
2018-Feb-16 13:28N 35°25' E 139°41'0 0.0
2018-Feb-16 12:55N 35°25' E 139°41'0 0.0
2018-Feb-16 12:28N 35°25' E 139°41'0 0.0
2018-Feb-16 11:55N 35°25' E 139°41'0 0.0
2018-Feb-16 11:28N 35°25' E 139°41'0 0.0
2018-Feb-16 10:58N 35°25' E 139°41'0 0.0
2018-Feb-16 10:28N 35°25' E 139°41'0 0.0
2018-Feb-16 09:55N 35°25' E 139°41'0 0.0
2018-Feb-16 09:28N 35°25' E 139°41'0 0.0
2018-Feb-16 08:58N 35°25' E 139°41'0 0.0
2018-Feb-16 08:25N 35°25' E 139°41'0 0.0
2018-Feb-16 07:58N 35°25' E 139°41'0 0.0
2018-Feb-16 07:28N 35°25' E 139°41'0 0.0
2018-Feb-16 06:55N 35°25' E 139°41'0 0.0
2018-Feb-16 06:28N 35°25' E 139°41'0 0.0
2018-Feb-16 05:58N 35°25' E 139°41'0 0.0
2018-Feb-16 05:19N 35°25' E 139°41'0 0.0
2018-Feb-16 04:52N 35°25' E 139°41'0 0.0
2018-Feb-16 04:28N 35°25' E 139°41'0 0.0
2018-Feb-16 03:55N 35°25' E 139°41'0 0.0
2018-Feb-16 03:28N 35°25' E 139°41'0 0.0
2018-Feb-16 02:58N 35°25' E 139°41'0 0.0
2018-Feb-16 02:28N 35°25' E 139°41'0 0.0
2018-Feb-16 01:58N 35°25' E 139°41'0 0.0
2018-Feb-16 01:25N 35°25' E 139°41'1 1.7
2018-Feb-16 00:59N 35°25' E 139°42'0 0.0
2018-Feb-16 00:29N 35°25' E 139°42'0 0.0
2018-Feb-15 23:59N 35°25' E 139°42'1 1.4
2018-Feb-15 23:29N 35°25' E 139°41'0 0.0
2018-Feb-15 22:59N 35°25' E 139°41'0 0.0
2018-Feb-15 22:29N 35°25' E 139°41'0 0.0
2018-Feb-15 21:59N 35°25' E 139°41'0 0.0
2018-Feb-15 21:26N 35°25' E 139°41'0 0.0
2018-Feb-15 20:59N 35°25' E 139°41'0 0.0
2018-Feb-15 20:29N 35°25' E 139°41'0 0.0
2018-Feb-15 19:59N 35°25' E 139°41'0 0.0
2018-Feb-15 19:29N 35°25' E 139°41'0 0.0
2018-Feb-15 18:59N 35°25' E 139°41'0 0.0
2018-Feb-15 18:29N 35°25' E 139°41'0 0.0
2018-Feb-15 17:59N 35°25' E 139°41'0 0.0
2018-Feb-15 17:29N 35°25' E 139°41'0 0.0
2018-Feb-15 16:53N 35°25' E 139°41'0 0.0
2018-Feb-15 16:29N 35°25' E 139°41'0 0.0
2018-Feb-15 15:59N 35°25' E 139°41'0 0.0
2018-Feb-15 15:23N 35°25' E 139°41'0 0.0
2018-Feb-15 14:59N 35°25' E 139°41'0 0.0
2018-Feb-15 14:29N 35°25' E 139°41'0 0.0
2018-Feb-15 13:59N 35°25' E 139°41'0 0.0
2018-Feb-15 13:29N 35°25' E 139°41'0 0.0
2018-Feb-15 12:59N 35°25' E 139°41'0 0.0
2018-Feb-15 12:29N 35°25' E 139°41'0 0.0
2018-Feb-15 11:59N 35°25' E 139°41'0 0.0
2018-Feb-15 11:23N 35°25' E 139°41'0 0.0
2018-Feb-15 10:59N 35°25' E 139°41'0 0.0
2018-Feb-15 10:29N 35°25' E 139°41'0 0.0
2018-Feb-15 09:59N 35°25' E 139°41'0 0.3
2018-Feb-15 09:30N 35°25' E 139°41'2 5.0
2018-Feb-15 09:00N 35°23' E 139°39'0 0.6
2018-Feb-15 08:30N 35°23' E 139°39'0 0.5
2018-Feb-15 08:01N 35°23' E 139°39'0 0.5
2018-Feb-15 07:30N 35°23' E 139°40'611.1
2018-Feb-15 07:00N 35°23' E 139°47'4 5.3
2018-Feb-15 06:17N 35°22' E 139°51'1 1.8
2018-Feb-15 05:59N 35°22' E 139°50'1 1.1
2018-Feb-15 05:25N 35°22' E 139°50'0 0.1
2018-Feb-15 04:57N 35°22' E 139°50'0 0.2
2018-Feb-15 04:30N 35°22' E 139°50'1 2.2
2018-Feb-15 03:59N 35°22' E 139°51'0 0.5
2018-Feb-15 03:21N 35°21' E 139°51'0 0.0
2018-Feb-15 03:00N 35°21' E 139°51'0 0.0
2018-Feb-15 02:30N 35°21' E 139°51'3 5.1
2018-Feb-15 02:00N 35°23' E 139°48'510.9
2018-Feb-15 01:30N 35°27' E 139°43'3 5.9
2018-Feb-15 00:58N 35°29' E 139°42'0 0.1
2018-Feb-15 00:29N 35°30' E 139°42'0 0.0
2018-Feb-15 00:00N 35°30' E 139°42'0 0.2
2018-Feb-14 23:29N 35°29' E 139°41'0 0.3
2018-Feb-14 23:00N 35°29' E 139°42'2 3.6
2018-Feb-14 22:28N 35°28' E 139°42'0 0.9
2018-Feb-14 21:58N 35°27' E 139°42'0 0.0
2018-Feb-14 21:28N 35°27' E 139°42'0 0.1
2018-Feb-14 20:58N 35°27' E 139°42'0 0.0
2018-Feb-14 20:28N 35°27' E 139°42'0 0.0
2018-Feb-14 19:55N 35°27' E 139°42'0 0.0
2018-Feb-14 19:26N 35°27' E 139°42'4 9.6
2018-Feb-14 19:00N 35°25' E 139°47'510.5
2018-Feb-14 18:30N 35°22' E 139°52'0 0.2
2018-Feb-14 17:58N 35°22' E 139°52'1 1.8
2018-Feb-14 17:30N 35°23' E 139°51'2 4.5
2018-Feb-14 16:58N 35°24' E 139°49'0 0.1
2018-Feb-14 16:30N 35°24' E 139°49'0 0.2
2018-Feb-14 16:00N 35°24' E 139°49'3 6.3
2018-Feb-14 15:30N 35°23' E 139°45'4 7.2
2018-Feb-14 14:59N 35°25' E 139°41'0 0.0
2018-Feb-14 14:11N 35°25' E 139°41'0 0.0
2018-Feb-14 13:56N 35°25' E 139°41'0 0.0
2018-Feb-14 13:29N 35°25' E 139°41'0 0.0
2018-Feb-14 12:59N 35°25' E 139°41'0 0.0
2018-Feb-14 12:29N 35°25' E 139°41'0 0.0
2018-Feb-14 11:59N 35°25' E 139°41'0 0.0
2018-Feb-14 11:26N 35°25' E 139°41'0 0.0
2018-Feb-14 10:59N 35°25' E 139°41'0 0.0
2018-Feb-14 10:29N 35°25' E 139°41'0 0.0
2018-Feb-14 09:59N 35°25' E 139°41'0 0.0
2018-Feb-14 09:29N 35°25' E 139°41'0 0.0
2018-Feb-14 08:59N 35°25' E 139°41'0 0.0
2018-Feb-14 08:23N 35°25' E 139°41'0 0.0
2018-Feb-14 07:59N 35°25' E 139°41'0 0.0
2018-Feb-14 07:29N 35°25' E 139°41'0 0.0
2018-Feb-14 06:59N 35°25' E 139°41'0 0.0
2018-Feb-14 06:29N 35°25' E 139°41'0 0.0
2018-Feb-14 05:59N 35°25' E 139°41'0 0.0
2018-Feb-14 05:29N 35°25' E 139°41'0 0.0
2018-Feb-14 04:59N 35°25' E 139°41'0 0.0
2018-Feb-14 04:29N 35°25' E 139°41'0 0.0
2018-Feb-14 03:56N 35°25' E 139°41'0 0.0
2018-Feb-14 03:29N 35°25' E 139°41'0 0.0
2018-Feb-14 02:53N 35°25' E 139°41'0 0.0
2018-Feb-14 02:29N 35°25' E 139°41'0 0.0
2018-Feb-14 01:59N 35°25' E 139°41'0 0.0
2018-Feb-14 01:29N 35°25' E 139°41'0 0.0
2018-Feb-14 00:59N 35°25' E 139°41'0 0.0
2018-Feb-14 00:29N 35°25' E 139°41'0 0.0
2018-Feb-13 23:53N 35°25' E 139°41'0 0.0
2018-Feb-13 23:29N 35°25' E 139°41'0 0.0
2018-Feb-13 22:59N 35°25' E 139°41'0 0.0
2018-Feb-13 22:29N 35°25' E 139°41'0 0.0
2018-Feb-13 21:59N 35°25' E 139°41'0 0.0
2018-Feb-13 21:29N 35°25' E 139°41'0 0.0
2018-Feb-13 20:59N 35°25' E 139°41'0 0.0
2018-Feb-13 20:29N 35°25' E 139°41'0 0.0
2018-Feb-13 19:59N 35°25' E 139°41'0 0.0
2018-Feb-13 19:26N 35°25' E 139°41'0 0.0
2018-Feb-13 18:59N 35°25' E 139°41'0 0.0
2018-Feb-13 18:29N 35°25' E 139°41'0 0.0
2018-Feb-13 17:59N 35°25' E 139°41'0 0.0
2018-Feb-13 17:29N 35°25' E 139°41'0 0.0
2018-Feb-13 16:59N 35°25' E 139°41'0 0.0
2018-Feb-13 16:29N 35°25' E 139°41'0 0.0
2018-Feb-13 15:56N 35°25' E 139°41'0 0.0
2018-Feb-13 15:29N 35°25' E 139°41'0 0.0
2018-Feb-13 14:59N 35°25' E 139°41'0 0.0
2018-Feb-13 14:29N 35°25' E 139°41'0 0.0
2018-Feb-13 13:59N 35°25' E 139°41'0 0.0
2018-Feb-13 13:29N 35°25' E 139°41'0 0.0
2018-Feb-13 12:56N 35°25' E 139°41'0 0.0
2018-Feb-13 12:29N 35°25' E 139°41'0 0.0
2018-Feb-13 11:59N 35°25' E 139°41'0 0.0
2018-Feb-13 11:29N 35°25' E 139°41'0 0.0
2018-Feb-13 10:59N 35°25' E 139°41'0 0.0
2018-Feb-13 10:29N 35°25' E 139°41'0 0.0
2018-Feb-13 09:53N 35°25' E 139°41'0 0.0
2018-Feb-13 09:17N 35°25' E 139°41'0 0.0
2018-Feb-13 08:59N 35°25' E 139°41'0 0.0
2018-Feb-13 08:26N 35°25' E 139°41'0 0.0
2018-Feb-13 07:59N 35°25' E 139°41'0 0.0
2018-Feb-13 07:26N 35°25' E 139°41'0 0.0
2018-Feb-13 06:56N 35°25' E 139°41'0 0.0
2018-Feb-13 06:29N 35°25' E 139°41'0 0.0
2018-Feb-13 05:59N 35°25' E 139°41'0 0.0
2018-Feb-13 05:29N 35°25' E 139°41'0 0.0
2018-Feb-13 04:59N 35°25' E 139°41'0 0.0
2018-Feb-13 04:29N 35°25' E 139°41'0 0.0
2018-Feb-13 03:59N 35°25' E 139°41'0 0.0
2018-Feb-13 03:26N 35°25' E 139°41'0 0.0
2018-Feb-13 02:59N 35°25' E 139°41'0 0.0
2018-Feb-13 02:20N 35°25' E 139°41'0 0.3
2018-Feb-13 01:59N 35°25' E 139°41'0 0.0
2018-Feb-13 01:26N 35°25' E 139°41'0 0.4
2018-Feb-13 00:59N 35°25' E 139°41'0 0.0
2018-Feb-13 00:29N 35°25' E 139°41'0 0.0
2018-Feb-12 23:59N 35°25' E 139°41'0 0.3
2018-Feb-12 23:27N 35°25' E 139°41'1 1.3
2018-Feb-12 22:58N 35°25' E 139°42'0 0.0
2018-Feb-12 22:25N 35°25' E 139°42'0 0.0
2018-Feb-12 21:58N 35°25' E 139°42'4 7.8
2018-Feb-12 21:30N 35°23' E 139°45'5 9.2
2018-Feb-12 20:59N 35°22' E 139°51'0 1.0
2018-Feb-12 20:29N 35°22' E 139°50'0 0.8
2018-Feb-12 19:54N 35°22' E 139°50'0 0.0
2018-Feb-12 19:30N 35°22' E 139°50'0 0.8
2018-Feb-12 19:00N 35°22' E 139°50'4 8.1
2018-Feb-12 18:30N 35°23' E 139°45'4 6.6
2018-Feb-12 17:56N 35°25' E 139°41'0 0.0
2018-Feb-12 17:26N 35°25' E 139°41'0 0.0
2018-Feb-12 16:59N 35°25' E 139°41'0 0.0
2018-Feb-12 16:29N 35°25' E 139°41'0 0.0
2018-Feb-12 15:59N 35°25' E 139°41'0 0.0
2018-Feb-12 15:14N 35°25' E 139°41'0 0.0
2018-Feb-12 14:59N 35°25' E 139°41'0 0.0
2018-Feb-12 14:29N 35°25' E 139°41'0 0.0
2018-Feb-12 13:56N 35°25' E 139°41'0 0.0
2018-Feb-12 13:25N 35°25' E 139°41'0 0.0
2018-Feb-12 12:58N 35°25' E 139°41'0 0.0
2018-Feb-12 12:25N 35°25' E 139°41'0 0.0
2018-Feb-12 11:55N 35°25' E 139°41'0 0.0
2018-Feb-12 11:29N 35°25' E 139°41'0 0.0
2018-Feb-12 10:58N 35°25' E 139°41'0 0.0
2018-Feb-12 10:29N 35°25' E 139°41'0 0.0
2018-Feb-12 09:58N 35°25' E 139°41'0 0.0
2018-Feb-12 09:23N 35°25' E 139°41'0 0.0
2018-Feb-12 08:59N 35°25' E 139°41'0 0.0
2018-Feb-12 08:29N 35°25' E 139°41'0 0.0
2018-Feb-12 07:58N 35°25' E 139°41'0 0.0
2018-Feb-12 07:29N 35°25' E 139°41'0 0.0
2018-Feb-12 06:58N 35°25' E 139°41'0 0.0
2018-Feb-12 06:29N 35°25' E 139°41'0 0.0
2018-Feb-12 05:59N 35°25' E 139°41'0 0.0
2018-Feb-12 05:29N 35°25' E 139°41'2 4.5
2018-Feb-12 05:00N 35°25' E 139°43'510.9
2018-Feb-12 04:30N 35°23' E 139°50'2 4.3
2018-Feb-12 03:59N 35°22' E 139°52'0 0.6
2018-Feb-12 03:25N 35°22' E 139°52'2 5.1
2018-Feb-12 03:00N 35°23' E 139°50'2 3.2
2018-Feb-12 02:30N 35°24' E 139°48'0 0.0
2018-Feb-12 02:00N 35°24' E 139°48'0 0.4
2018-Feb-12 01:30N 35°24' E 139°49'3 6.5
2018-Feb-12 00:59N 35°22' E 139°52'0 0.7
2018-Feb-12 00:30N 35°22' E 139°53'0 0.1
2018-Feb-11 23:58N 35°22' E 139°53'0 0.0
2018-Feb-11 23:22N 35°22' E 139°53'0 0.0
2018-Feb-11 22:58N 35°22' E 139°53'0 0.1
2018-Feb-11 22:28N 35°22' E 139°53'0 0.0
2018-Feb-11 21:52N 35°22' E 139°53'0 0.0
2018-Feb-11 21:28N 35°22' E 139°53'0 0.0
2018-Feb-11 20:58N 35°22' E 139°53'0 0.0
2018-Feb-11 20:16N 35°22' E 139°53'0 0.0
2018-Feb-11 19:55N 35°22' E 139°53'1 1.3
2018-Feb-11 19:30N 35°22' E 139°52'0 0.3
2018-Feb-11 19:00N 35°22' E 139°52'0 0.0
2018-Feb-11 18:30N 35°22' E 139°52'0 0.7
2018-Feb-11 18:00N 35°22' E 139°52'3 5.9
2018-Feb-11 17:30N 35°24' E 139°49'2 4.7
2018-Feb-11 16:59N 35°26' E 139°50'1 1.0
2018-Feb-11 16:29N 35°26' E 139°50'5 9.7
2018-Feb-11 16:00N 35°22' E 139°51'0 0.3
2018-Feb-11 15:27N 35°22' E 139°51'1 2.3
2018-Feb-11 15:00N 35°22' E 139°50'0 0.2
2018-Feb-11 14:29N 35°22' E 139°50'1 1.8
2018-Feb-11 13:57N 35°22' E 139°51'0 0.6
2018-Feb-11 13:30N 35°21' E 139°51'3 5.4
2018-Feb-11 13:00N 35°23' E 139°48'5 9.4
2018-Feb-11 12:30N 35°24' E 139°43'2 2.6
2018-Feb-11 11:54N 35°25' E 139°41'0 0.0
2018-Feb-11 11:27N 35°25' E 139°41'0 0.0
2018-Feb-11 11:00N 35°25' E 139°41'0 0.0
2018-Feb-11 10:30N 35°25' E 139°41'0 0.0
2018-Feb-11 10:00N 35°25' E 139°41'0 0.0
2018-Feb-11 09:24N 35°25' E 139°41'0 0.0
2018-Feb-11 09:00N 35°25' E 139°41'0 0.0
2018-Feb-11 08:30N 35°25' E 139°41'0 0.0
2018-Feb-11 08:00N 35°25' E 139°41'0 0.0
2018-Feb-11 07:21N 35°25' E 139°41'0 0.0
2018-Feb-11 07:00N 35°25' E 139°41'0 0.0
2018-Feb-11 06:30N 35°25' E 139°41'0 0.0
2018-Feb-11 06:00N 35°25' E 139°41'0 0.0
2018-Feb-11 05:30N 35°25' E 139°41'0 0.0
2018-Feb-11 05:00N 35°25' E 139°41'0 0.0
2018-Feb-11 04:27N 35°25' E 139°41'0 0.0
2018-Feb-11 03:57N 35°25' E 139°41'0 0.0
2018-Feb-11 03:30N 35°25' E 139°41'0 0.0
2018-Feb-11 03:00N 35°25' E 139°41'0 0.0
2018-Feb-11 02:30N 35°25' E 139°41'0 0.0
2018-Feb-11 02:00N 35°25' E 139°41'0 0.0
2018-Feb-11 01:30N 35°25' E 139°41'0 0.0
2018-Feb-11 01:00N 35°25' E 139°41'0 0.0
2018-Feb-11 00:30N 35°25' E 139°41'0 0.0
2018-Feb-11 00:00N 35°25' E 139°41'0 0.0
2018-Feb-10 23:30N 35°25' E 139°41'0 0.0
2018-Feb-10 22:57N 35°25' E 139°41'0 0.0
2018-Feb-10 22:30N 35°25' E 139°41'0 0.0
2018-Feb-10 22:00N 35°25' E 139°41'0 0.0
2018-Feb-10 21:30N 35°25' E 139°41'0 0.0
2018-Feb-10 21:00N 35°25' E 139°41'0 0.0
2018-Feb-10 20:30N 35°25' E 139°41'0 0.0
2018-Feb-10 19:57N 35°25' E 139°41'0 0.0
2018-Feb-10 19:30N 35°25' E 139°41'0 0.0
2018-Feb-10 19:00N 35°25' E 139°41'0 0.0
2018-Feb-10 18:30N 35°25' E 139°41'0 0.0
2018-Feb-10 18:00N 35°25' E 139°41'0 0.0
2018-Feb-10 17:30N 35°25' E 139°41'0 0.0
2018-Feb-10 16:57N 35°25' E 139°41'0 0.0
2018-Feb-10 16:30N 35°25' E 139°41'0 0.0
2018-Feb-10 15:57N 35°25' E 139°41'0 0.0
2018-Feb-10 15:30N 35°25' E 139°41'0 0.0
2018-Feb-10 15:00N 35°25' E 139°41'0 0.0
2018-Feb-10 14:30N 35°25' E 139°41'0 0.0
2018-Feb-10 14:00N 35°25' E 139°41'0 0.0
2018-Feb-10 13:30N 35°25' E 139°41'0 0.0
2018-Feb-10 12:57N 35°25' E 139°41'0 0.0
2018-Feb-10 12:30N 35°25' E 139°41'0 0.0
2018-Feb-10 11:57N 35°25' E 139°41'0 0.0
2018-Feb-10 11:30N 35°25' E 139°41'0 0.0
2018-Feb-10 11:00N 35°25' E 139°41'0 0.0
2018-Feb-10 10:27N 35°25' E 139°41'0 0.0
2018-Feb-10 10:00N 35°25' E 139°41'0 0.0
2018-Feb-10 09:30N 35°25' E 139°41'0 0.0
2018-Feb-10 08:57N 35°25' E 139°41'0 0.0
2018-Feb-10 08:30N 35°25' E 139°41'0 0.0
2018-Feb-10 08:00N 35°25' E 139°41'0 0.0
2018-Feb-10 07:30N 35°25' E 139°41'5 9.3
2018-Feb-10 07:00N 35°23' E 139°46'  
Track history (hours):
 
Tides and Currents Weather Stations Pressure Air Temp Water Temp Dewpoint Dewpoint Depression Visibility Wind Speed Wind Dir Waves Ship Positions

Fujimaru

Last reported at 2018-Feb-20 07:29 UTC. Time now 2018-Feb-20 07:30 UTC.
Position N 35°25' E 139°41'.

Length 35 m.

Type: Tug. MMSI: 431100382.

Date/timePositionNaut miles runAvg speedWind from/ knotsBaromVisibWave heightAir tempDewpointWater temp
2018-Feb-20 07:29N 35°25' E 139°41'0 0.0
2018-Feb-20 06:59N 35°25' E 139°41'0 0.0
2018-Feb-20 06:29N 35°25' E 139°41'2 4.0
2018-Feb-20 06:00N 35°23' E 139°41'5 9.5
2018-Feb-20 05:30N 35°19' E 139°39'1 1.9
2018-Feb-20 04:57N 35°18' E 139°38'0 0.2
2018-Feb-20 04:28N 35°18' E 139°38'0 0.1
2018-Feb-20 04:00N 35°18' E 139°38'0 0.1
2018-Feb-20 03:27N 35°18' E 139°38'0 0.0
2018-Feb-20 03:00N 35°18' E 139°38'0 0.2
2018-Feb-20 02:29N 35°18' E 139°38'1 1.6
2018-Feb-20 02:00N 35°19' E 139°39'0 0.1
2018-Feb-20 01:30N 35°19' E 139°39'1 1.0
2018-Feb-20 01:00N 35°19' E 139°39'3 5.6
2018-Feb-20 00:29N 35°21' E 139°41'4 7.3
2018-Feb-19 23:58N 35°25' E 139°41'0 0.0
2018-Feb-19 23:25N 35°25' E 139°41'0 0.0
2018-Feb-19 22:58N 35°25' E 139°41'0 0.0
2018-Feb-19 22:25N 35°25' E 139°41'0 0.0
2018-Feb-19 21:58N 35°25' E 139°41'0 0.0
2018-Feb-19 21:25N 35°25' E 139°41'0 0.0
2018-Feb-19 20:58N 35°25' E 139°41'0 0.0
2018-Feb-19 20:25N 35°25' E 139°41'0 0.0
2018-Feb-19 19:58N 35°25' E 139°41'0 0.0
2018-Feb-19 19:28N 35°25' E 139°41'0 0.0
2018-Feb-19 18:58N 35°25' E 139°41'0 0.0
2018-Feb-19 18:28N 35°25' E 139°41'0 0.0
2018-Feb-19 17:58N 35°25' E 139°41'0 0.0
2018-Feb-19 17:28N 35°25' E 139°41'0 0.0
2018-Feb-19 16:58N 35°25' E 139°41'0 0.0
2018-Feb-19 16:28N 35°25' E 139°41'0 0.0
2018-Feb-19 15:58N 35°25' E 139°41'0 0.0
2018-Feb-19 15:28N 35°25' E 139°41'0 0.0
2018-Feb-19 14:58N 35°25' E 139°41'0 0.0
2018-Feb-19 14:28N 35°25' E 139°41'0 0.0
2018-Feb-19 14:01N 35°25' E 139°41'0 0.0
2018-Feb-19 13:31N 35°25' E 139°41'0 0.8
2018-Feb-19 13:00N 35°25' E 139°41'611.5
2018-Feb-19 12:30N 35°23' E 139°48'5 8.5
2018-Feb-19 11:58N 35°22' E 139°53'0 0.4
2018-Feb-19 11:27N 35°22' E 139°53'1 2.3
2018-Feb-19 10:49N 35°22' E 139°51'0 0.4
2018-Feb-19 10:29N 35°22' E 139°51'1 2.0
2018-Feb-19 10:00N 35°22' E 139°52'0 0.5
2018-Feb-19 09:28N 35°22' E 139°53'0 0.0
2018-Feb-19 08:49N 35°22' E 139°53'0 0.0
2018-Feb-19 08:22N 35°22' E 139°53'0 0.0
2018-Feb-19 07:55N 35°22' E 139°53'0 0.1
2018-Feb-19 07:10N 35°22' E 139°53'0 0.0
2018-Feb-19 06:55N 35°22' E 139°53'0 0.1
2018-Feb-19 06:19N 35°22' E 139°53'0 0.1
2018-Feb-19 06:00N 35°22' E 139°53'1 1.1
2018-Feb-19 05:30N 35°22' E 139°52'0 0.7
2018-Feb-19 04:53N 35°22' E 139°52'2 5.5
2018-Feb-19 04:27N 35°24' E 139°49'1 2.7
2018-Feb-19 03:59N 35°24' E 139°48'0 0.0
2018-Feb-19 03:30N 35°24' E 139°48'0 0.1
2018-Feb-19 03:00N 35°24' E 139°48'2 4.7
2018-Feb-19 02:30N 35°23' E 139°45'4 8.7
2018-Feb-19 02:00N 35°20' E 139°41'2 4.7
2018-Feb-19 01:29N 35°18' E 139°39'2 3.7
2018-Feb-19 00:59N 35°20' E 139°40'4 8.3
2018-Feb-19 00:30N 35°24' E 139°39'1 1.2
2018-Feb-18 23:57N 35°24' E 139°38'0 0.1
2018-Feb-18 23:30N 35°24' E 139°38'0 0.6
2018-Feb-18 22:52N 35°24' E 139°38'0 0.2
2018-Feb-18 22:29N 35°23' E 139°38'0 0.0
2018-Feb-18 22:00N 35°23' E 139°38'1 1.4
2018-Feb-18 21:30N 35°24' E 139°39'2 3.9
2018-Feb-18 20:58N 35°25' E 139°41'0 0.0
2018-Feb-18 20:28N 35°25' E 139°41'0 0.0
2018-Feb-18 19:58N 35°25' E 139°41'0 0.0
2018-Feb-18 19:28N 35°25' E 139°41'0 0.0
2018-Feb-18 18:58N 35°25' E 139°41'0 0.0
2018-Feb-18 18:28N 35°25' E 139°41'0 0.0
2018-Feb-18 17:58N 35°25' E 139°41'0 0.0
2018-Feb-18 17:25N 35°25' E 139°41'0 0.0
2018-Feb-18 16:58N 35°25' E 139°41'0 0.0
2018-Feb-18 16:28N 35°25' E 139°41'0 0.0
2018-Feb-18 15:58N 35°25' E 139°41'0 0.0
2018-Feb-18 15:25N 35°25' E 139°41'0 0.0
2018-Feb-18 14:58N 35°25' E 139°41'0 0.0
2018-Feb-18 14:22N 35°25' E 139°41'0 0.0
2018-Feb-18 13:58N 35°25' E 139°41'0 0.0
2018-Feb-18 13:25N 35°25' E 139°41'0 0.0
2018-Feb-18 12:52N 35°25' E 139°41'0 0.0
2018-Feb-18 12:25N 35°25' E 139°41'0 0.0
2018-Feb-18 11:58N 35°25' E 139°41'0 0.0
2018-Feb-18 11:28N 35°25' E 139°41'0 0.0
2018-Feb-18 10:58N 35°25' E 139°41'0 0.0
2018-Feb-18 10:28N 35°25' E 139°41'0 0.0
2018-Feb-18 09:55N 35°25' E 139°41'0 0.0
2018-Feb-18 09:28N 35°25' E 139°41'0 0.0
2018-Feb-18 08:58N 35°25' E 139°41'0 0.0
2018-Feb-18 08:28N 35°25' E 139°41'0 0.0
2018-Feb-18 07:58N 35°25' E 139°41'0 0.0
2018-Feb-18 07:28N 35°25' E 139°41'0 0.0
2018-Feb-18 06:58N 35°25' E 139°41'1 2.7
2018-Feb-18 06:30N 35°24' E 139°42'3 5.2
2018-Feb-18 06:00N 35°24' E 139°39'2 3.1
2018-Feb-18 05:24N 35°24' E 139°41'0 0.5
2018-Feb-18 04:58N 35°24' E 139°41'0 0.9
2018-Feb-18 04:30N 35°23' E 139°40'2 3.4
2018-Feb-18 03:58N 35°25' E 139°41'0 0.0
2018-Feb-18 03:28N 35°25' E 139°41'0 0.0
2018-Feb-18 02:58N 35°25' E 139°41'0 0.0
2018-Feb-18 02:28N 35°25' E 139°41'0 0.0
2018-Feb-18 01:55N 35°25' E 139°41'0 0.0
2018-Feb-18 01:22N 35°25' E 139°41'0 0.0
2018-Feb-18 00:58N 35°25' E 139°41'0 0.0
2018-Feb-18 00:28N 35°25' E 139°41'0 0.0
2018-Feb-17 23:58N 35°25' E 139°41'0 0.0
2018-Feb-17 23:28N 35°25' E 139°41'0 0.0
2018-Feb-17 22:58N 35°25' E 139°41'0 0.0
2018-Feb-17 22:28N 35°25' E 139°41'0 0.0
2018-Feb-17 21:52N 35°25' E 139°41'0 0.0
2018-Feb-17 21:28N 35°25' E 139°41'0 0.0
2018-Feb-17 20:52N 35°25' E 139°41'0 0.0
2018-Feb-17 20:28N 35°25' E 139°41'0 0.0
2018-Feb-17 19:58N 35°25' E 139°41'0 0.0
2018-Feb-17 19:28N 35°25' E 139°41'0 0.0
2018-Feb-17 18:58N 35°25' E 139°41'0 0.0
2018-Feb-17 18:28N 35°25' E 139°41'0 0.0
2018-Feb-17 17:58N 35°25' E 139°41'0 0.0
2018-Feb-17 17:28N 35°25' E 139°41'0 0.0
2018-Feb-17 16:58N 35°25' E 139°41'0 0.0
2018-Feb-17 16:28N 35°25' E 139°41'0 0.0
2018-Feb-17 15:58N 35°25' E 139°41'0 0.0
2018-Feb-17 15:28N 35°25' E 139°41'0 0.0
2018-Feb-17 14:58N 35°25' E 139°41'0 0.0
2018-Feb-17 14:28N 35°25' E 139°41'0 0.0
2018-Feb-17 13:58N 35°25' E 139°41'0 0.0
2018-Feb-17 13:28N 35°25' E 139°41'0 0.0
2018-Feb-17 12:58N 35°25' E 139°41'0 0.0
2018-Feb-17 12:28N 35°25' E 139°41'0 0.0
2018-Feb-17 11:58N 35°25' E 139°41'0 0.0
2018-Feb-17 11:28N 35°25' E 139°41'0 0.0
2018-Feb-17 10:58N 35°25' E 139°41'0 0.0
2018-Feb-17 10:28N 35°25' E 139°41'0 0.0
2018-Feb-17 09:58N 35°25' E 139°41'0 0.0
2018-Feb-17 09:28N 35°25' E 139°41'1 2.7
2018-Feb-17 09:00N 35°24' E 139°42'2 4.8
2018-Feb-17 08:30N 35°23' E 139°39'0 0.1
2018-Feb-17 08:00N 35°23' E 139°39'2 4.5
2018-Feb-17 07:29N 35°25' E 139°41'0 0.0
2018-Feb-17 06:59N 35°25' E 139°41'0 0.0
2018-Feb-17 06:29N 35°25' E 139°41'0 0.0
2018-Feb-17 05:59N 35°25' E 139°41'0 0.0
2018-Feb-17 05:29N 35°25' E 139°41'0 0.0
2018-Feb-17 04:59N 35°25' E 139°41'0 0.0
2018-Feb-17 04:29N 35°25' E 139°41'0 0.0
2018-Feb-17 03:59N 35°25' E 139°41'0 0.0
2018-Feb-17 03:23N 35°25' E 139°41'0 0.0
2018-Feb-17 02:59N 35°25' E 139°41'0 0.0
2018-Feb-17 02:29N 35°25' E 139°41'0 0.0
2018-Feb-17 01:59N 35°25' E 139°41'0 0.0
2018-Feb-17 01:29N 35°25' E 139°41'0 0.0
2018-Feb-17 00:59N 35°25' E 139°41'0 0.0
2018-Feb-17 00:29N 35°25' E 139°41'0 0.0
2018-Feb-16 23:56N 35°25' E 139°41'0 0.0
2018-Feb-16 23:29N 35°25' E 139°41'0 0.0
2018-Feb-16 23:00N 35°25' E 139°41'5 9.8
2018-Feb-16 22:30N 35°23' E 139°46'5 8.4
2018-Feb-16 21:56N 35°22' E 139°52'0 0.1
2018-Feb-16 21:29N 35°22' E 139°52'1 1.7
2018-Feb-16 21:00N 35°23' E 139°51'2 4.5
2018-Feb-16 20:27N 35°24' E 139°49'1 1.6
2018-Feb-16 19:58N 35°24' E 139°48'1 3.0
2018-Feb-16 19:30N 35°23' E 139°49'3 4.9
2018-Feb-16 18:58N 35°22' E 139°52'0 0.2
2018-Feb-16 18:29N 35°22' E 139°52'1 3.0
2018-Feb-16 18:00N 35°23' E 139°50'5 9.0
2018-Feb-16 17:30N 35°23' E 139°45'4 7.1
2018-Feb-16 16:58N 35°25' E 139°41'0 0.0
2018-Feb-16 16:25N 35°25' E 139°41'0 0.0
2018-Feb-16 15:58N 35°25' E 139°41'0 0.0
2018-Feb-16 15:28N 35°25' E 139°41'0 0.0
2018-Feb-16 14:55N 35°25' E 139°41'0 0.0
2018-Feb-16 14:25N 35°25' E 139°41'0 0.0
2018-Feb-16 13:55N 35°25' E 139°41'0 0.0
2018-Feb-16 13:28N 35°25' E 139°41'0 0.0
2018-Feb-16 12:55N 35°25' E 139°41'0 0.0
2018-Feb-16 12:28N 35°25' E 139°41'0 0.0
2018-Feb-16 11:55N 35°25' E 139°41'0 0.0
2018-Feb-16 11:28N 35°25' E 139°41'0 0.0
2018-Feb-16 10:58N 35°25' E 139°41'0 0.0
2018-Feb-16 10:28N 35°25' E 139°41'0 0.0
2018-Feb-16 09:55N 35°25' E 139°41'0 0.0
2018-Feb-16 09:28N 35°25' E 139°41'0 0.0
2018-Feb-16 08:58N 35°25' E 139°41'0 0.0
2018-Feb-16 08:25N 35°25' E 139°41'0 0.0
2018-Feb-16 07:58N 35°25' E 139°41'0 0.0
2018-Feb-16 07:28N 35°25' E 139°41'0 0.0
2018-Feb-16 06:55N 35°25' E 139°41'0 0.0
2018-Feb-16 06:28N 35°25' E 139°41'0 0.0
2018-Feb-16 05:58N 35°25' E 139°41'0 0.0
2018-Feb-16 05:19N 35°25' E 139°41'0 0.0
2018-Feb-16 04:52N 35°25' E 139°41'0 0.0
2018-Feb-16 04:28N 35°25' E 139°41'0 0.0
2018-Feb-16 03:55N 35°25' E 139°41'0 0.0
2018-Feb-16 03:28N 35°25' E 139°41'0 0.0
2018-Feb-16 02:58N 35°25' E 139°41'0 0.0
2018-Feb-16 02:28N 35°25' E 139°41'0 0.0
2018-Feb-16 01:58N 35°25' E 139°41'0 0.0
2018-Feb-16 01:25N 35°25' E 139°41'1 1.7
2018-Feb-16 00:59N 35°25' E 139°42'0 0.0
2018-Feb-16 00:29N 35°25' E 139°42'0 0.0
2018-Feb-15 23:59N 35°25' E 139°42'1 1.4
2018-Feb-15 23:29N 35°25' E 139°41'0 0.0
2018-Feb-15 22:59N 35°25' E 139°41'0 0.0
2018-Feb-15 22:29N 35°25' E 139°41'0 0.0
2018-Feb-15 21:59N 35°25' E 139°41'0 0.0
2018-Feb-15 21:26N 35°25' E 139°41'0 0.0
2018-Feb-15 20:59N 35°25' E 139°41'0 0.0
2018-Feb-15 20:29N 35°25' E 139°41'0 0.0
2018-Feb-15 19:59N 35°25' E 139°41'0 0.0
2018-Feb-15 19:29N 35°25' E 139°41'0 0.0
2018-Feb-15 18:59N 35°25' E 139°41'0 0.0
2018-Feb-15 18:29N 35°25' E 139°41'0 0.0
2018-Feb-15 17:59N 35°25' E 139°41'0 0.0
2018-Feb-15 17:29N 35°25' E 139°41'0 0.0
2018-Feb-15 16:53N 35°25' E 139°41'0 0.0
2018-Feb-15 16:29N 35°25' E 139°41'0 0.0
2018-Feb-15 15:59N 35°25' E 139°41'0 0.0
2018-Feb-15 15:23N 35°25' E 139°41'0 0.0
2018-Feb-15 14:59N 35°25' E 139°41'0 0.0
2018-Feb-15 14:29N 35°25' E 139°41'0 0.0
2018-Feb-15 13:59N 35°25' E 139°41'0 0.0
2018-Feb-15 13:29N 35°25' E 139°41'0 0.0
2018-Feb-15 12:59N 35°25' E 139°41'0 0.0
2018-Feb-15 12:29N 35°25' E 139°41'0 0.0
2018-Feb-15 11:59N 35°25' E 139°41'0 0.0
2018-Feb-15 11:23N 35°25' E 139°41'0 0.0
2018-Feb-15 10:59N 35°25' E 139°41'0 0.0
2018-Feb-15 10:29N 35°25' E 139°41'0 0.0
2018-Feb-15 09:59N 35°25' E 139°41'0 0.3
2018-Feb-15 09:30N 35°25' E 139°41'2 5.0
2018-Feb-15 09:00N 35°23' E 139°39'0 0.6
2018-Feb-15 08:30N 35°23' E 139°39'0 0.5
2018-Feb-15 08:01N 35°23' E 139°39'0 0.5
2018-Feb-15 07:30N 35°23' E 139°40'611.1
2018-Feb-15 07:00N 35°23' E 139°47'4 5.3
2018-Feb-15 06:17N 35°22' E 139°51'1 1.8
2018-Feb-15 05:59N 35°22' E 139°50'1 1.1
2018-Feb-15 05:25N 35°22' E 139°50'0 0.1
2018-Feb-15 04:57N 35°22' E 139°50'0 0.2
2018-Feb-15 04:30N 35°22' E 139°50'1 2.2
2018-Feb-15 03:59N 35°22' E 139°51'0 0.5
2018-Feb-15 03:21N 35°21' E 139°51'0 0.0
2018-Feb-15 03:00N 35°21' E 139°51'0 0.0
2018-Feb-15 02:30N 35°21' E 139°51'3 5.1
2018-Feb-15 02:00N 35°23' E 139°48'510.9
2018-Feb-15 01:30N 35°27' E 139°43'3 5.9
2018-Feb-15 00:58N 35°29' E 139°42'0 0.1
2018-Feb-15 00:29N 35°30' E 139°42'0 0.0
2018-Feb-15 00:00N 35°30' E 139°42'0 0.2
2018-Feb-14 23:29N 35°29' E 139°41'0 0.3
2018-Feb-14 23:00N 35°29' E 139°42'2 3.6
2018-Feb-14 22:28N 35°28' E 139°42'0 0.9
2018-Feb-14 21:58N 35°27' E 139°42'0 0.0
2018-Feb-14 21:28N 35°27' E 139°42'0 0.1
2018-Feb-14 20:58N 35°27' E 139°42'0 0.0
2018-Feb-14 20:28N 35°27' E 139°42'0 0.0
2018-Feb-14 19:55N 35°27' E 139°42'0 0.0
2018-Feb-14 19:26N 35°27' E 139°42'4 9.6
2018-Feb-14 19:00N 35°25' E 139°47'510.5
2018-Feb-14 18:30N 35°22' E 139°52'0 0.2
2018-Feb-14 17:58N 35°22' E 139°52'1 1.8
2018-Feb-14 17:30N 35°23' E 139°51'2 4.5
2018-Feb-14 16:58N 35°24' E 139°49'0 0.1
2018-Feb-14 16:30N 35°24' E 139°49'0 0.2
2018-Feb-14 16:00N 35°24' E 139°49'3 6.3
2018-Feb-14 15:30N 35°23' E 139°45'4 7.2
2018-Feb-14 14:59N 35°25' E 139°41'0 0.0
2018-Feb-14 14:11N 35°25' E 139°41'0 0.0
2018-Feb-14 13:56N 35°25' E 139°41'0 0.0
2018-Feb-14 13:29N 35°25' E 139°41'0 0.0
2018-Feb-14 12:59N 35°25' E 139°41'0 0.0
2018-Feb-14 12:29N 35°25' E 139°41'0 0.0
2018-Feb-14 11:59N 35°25' E 139°41'0 0.0
2018-Feb-14 11:26N 35°25' E 139°41'0 0.0
2018-Feb-14 10:59N 35°25' E 139°41'0 0.0
2018-Feb-14 10:29N 35°25' E 139°41'0 0.0
2018-Feb-14 09:59N 35°25' E 139°41'0 0.0
2018-Feb-14 09:29N 35°25' E 139°41'0 0.0
2018-Feb-14 08:59N 35°25' E 139°41'0 0.0
2018-Feb-14 08:23N 35°25' E 139°41'0 0.0
2018-Feb-14 07:59N 35°25' E 139°41'0 0.0
2018-Feb-14 07:29N 35°25' E 139°41'0 0.0
2018-Feb-14 06:59N 35°25' E 139°41'0 0.0
2018-Feb-14 06:29N 35°25' E 139°41'0 0.0
2018-Feb-14 05:59N 35°25' E 139°41'0 0.0
2018-Feb-14 05:29N 35°25' E 139°41'0 0.0
2018-Feb-14 04:59N 35°25' E 139°41'0 0.0
2018-Feb-14 04:29N 35°25' E 139°41'0 0.0
2018-Feb-14 03:56N 35°25' E 139°41'0 0.0
2018-Feb-14 03:29N 35°25' E 139°41'0 0.0
2018-Feb-14 02:53N 35°25' E 139°41'0 0.0
2018-Feb-14 02:29N 35°25' E 139°41'0 0.0
2018-Feb-14 01:59N 35°25' E 139°41'0 0.0
2018-Feb-14 01:29N 35°25' E 139°41'0 0.0
2018-Feb-14 00:59N 35°25' E 139°41'0 0.0
2018-Feb-14 00:29N 35°25' E 139°41'0 0.0
2018-Feb-13 23:53N 35°25' E 139°41'0 0.0
2018-Feb-13 23:29N 35°25' E 139°41'0 0.0
2018-Feb-13 22:59N 35°25' E 139°41'0 0.0
2018-Feb-13 22:29N 35°25' E 139°41'0 0.0
2018-Feb-13 21:59N 35°25' E 139°41'0 0.0
2018-Feb-13 21:29N 35°25' E 139°41'0 0.0
2018-Feb-13 20:59N 35°25' E 139°41'0 0.0
2018-Feb-13 20:29N 35°25' E 139°41'0 0.0
2018-Feb-13 19:59N 35°25' E 139°41'0 0.0
2018-Feb-13 19:26N 35°25' E 139°41'0 0.0
2018-Feb-13 18:59N 35°25' E 139°41'0 0.0
2018-Feb-13 18:29N 35°25' E 139°41'0 0.0
2018-Feb-13 17:59N 35°25' E 139°41'0 0.0
2018-Feb-13 17:29N 35°25' E 139°41'0 0.0
2018-Feb-13 16:59N 35°25' E 139°41'0 0.0
2018-Feb-13 16:29N 35°25' E 139°41'0 0.0
2018-Feb-13 15:56N 35°25' E 139°41'0 0.0
2018-Feb-13 15:29N 35°25' E 139°41'0 0.0
2018-Feb-13 14:59N 35°25' E 139°41'0 0.0
2018-Feb-13 14:29N 35°25' E 139°41'0 0.0
2018-Feb-13 13:59N 35°25' E 139°41'0 0.0
2018-Feb-13 13:29N 35°25' E 139°41'0 0.0
2018-Feb-13 12:56N 35°25' E 139°41'0 0.0
2018-Feb-13 12:29N 35°25' E 139°41'0 0.0
2018-Feb-13 11:59N 35°25' E 139°41'0 0.0
2018-Feb-13 11:29N 35°25' E 139°41'0 0.0
2018-Feb-13 10:59N 35°25' E 139°41'0 0.0
2018-Feb-13 10:29N 35°25' E 139°41'0 0.0
2018-Feb-13 09:53N 35°25' E 139°41'0 0.0
2018-Feb-13 09:17N 35°25' E 139°41'0 0.0
2018-Feb-13 08:59N 35°25' E 139°41'0 0.0
2018-Feb-13 08:26N 35°25' E 139°41'0 0.0
2018-Feb-13 07:59N 35°25' E 139°41'0 0.0
2018-Feb-13 07:26N 35°25' E 139°41'0 0.0
2018-Feb-13 06:56N 35°25' E 139°41'0 0.0
2018-Feb-13 06:29N 35°25' E 139°41'0 0.0
2018-Feb-13 05:59N 35°25' E 139°41'0 0.0
2018-Feb-13 05:29N 35°25' E 139°41'0 0.0
2018-Feb-13 04:59N 35°25' E 139°41'0 0.0
2018-Feb-13 04:29N 35°25' E 139°41'0 0.0
2018-Feb-13 03:59N 35°25' E 139°41'0 0.0
2018-Feb-13 03:26N 35°25' E 139°41'0 0.0
2018-Feb-13 02:59N 35°25' E 139°41'0 0.0
2018-Feb-13 02:20N 35°25' E 139°41'0 0.3
2018-Feb-13 01:59N 35°25' E 139°41'0 0.0
2018-Feb-13 01:26N 35°25' E 139°41'0 0.4
2018-Feb-13 00:59N 35°25' E 139°41'0 0.0
2018-Feb-13 00:29N 35°25' E 139°41'0 0.0
2018-Feb-12 23:59N 35°25' E 139°41'0 0.3
2018-Feb-12 23:27N 35°25' E 139°41'1 1.3
2018-Feb-12 22:58N 35°25' E 139°42'0 0.0
2018-Feb-12 22:25N 35°25' E 139°42'0 0.0
2018-Feb-12 21:58N 35°25' E 139°42'4 7.8
2018-Feb-12 21:30N 35°23' E 139°45'5 9.2
2018-Feb-12 20:59N 35°22' E 139°51'0 1.0
2018-Feb-12 20:29N 35°22' E 139°50'0 0.8
2018-Feb-12 19:54N 35°22' E 139°50'0 0.0
2018-Feb-12 19:30N 35°22' E 139°50'0 0.8
2018-Feb-12 19:00N 35°22' E 139°50'4 8.1
2018-Feb-12 18:30N 35°23' E 139°45'4 6.6
2018-Feb-12 17:56N 35°25' E 139°41'0 0.0
2018-Feb-12 17:26N 35°25' E 139°41'0 0.0
2018-Feb-12 16:59N 35°25' E 139°41'0 0.0
2018-Feb-12 16:29N 35°25' E 139°41'0 0.0
2018-Feb-12 15:59N 35°25' E 139°41'0 0.0
2018-Feb-12 15:14N 35°25' E 139°41'0 0.0
2018-Feb-12 14:59N 35°25' E 139°41'0 0.0
2018-Feb-12 14:29N 35°25' E 139°41'0 0.0
2018-Feb-12 13:56N 35°25' E 139°41'0 0.0
2018-Feb-12 13:25N 35°25' E 139°41'0 0.0
2018-Feb-12 12:58N 35°25' E 139°41'0 0.0
2018-Feb-12 12:25N 35°25' E 139°41'0 0.0
2018-Feb-12 11:55N 35°25' E 139°41'0 0.0
2018-Feb-12 11:29N 35°25' E 139°41'0 0.0
2018-Feb-12 10:58N 35°25' E 139°41'0 0.0
2018-Feb-12 10:29N 35°25' E 139°41'0 0.0
2018-Feb-12 09:58N 35°25' E 139°41'0 0.0
2018-Feb-12 09:23N 35°25' E 139°41'0 0.0
2018-Feb-12 08:59N 35°25' E 139°41'0 0.0
2018-Feb-12 08:29N 35°25' E 139°41'0 0.0
2018-Feb-12 07:58N 35°25' E 139°41'0 0.0
2018-Feb-12 07:29N 35°25' E 139°41'0 0.0
2018-Feb-12 06:58N 35°25' E 139°41'0 0.0
2018-Feb-12 06:29N 35°25' E 139°41'0 0.0
2018-Feb-12 05:59N 35°25' E 139°41'0 0.0
2018-Feb-12 05:29N 35°25' E 139°41'2 4.5
2018-Feb-12 05:00N 35°25' E 139°43'510.9
2018-Feb-12 04:30N 35°23' E 139°50'2 4.3
2018-Feb-12 03:59N 35°22' E 139°52'0 0.6
2018-Feb-12 03:25N 35°22' E 139°52'2 5.1
2018-Feb-12 03:00N 35°23' E 139°50'2 3.2
2018-Feb-12 02:30N 35°24' E 139°48'0 0.0
2018-Feb-12 02:00N 35°24' E 139°48'0 0.4
2018-Feb-12 01:30N 35°24' E 139°49'3 6.5
2018-Feb-12 00:59N 35°22' E 139°52'0 0.7
2018-Feb-12 00:30N 35°22' E 139°53'0 0.1
2018-Feb-11 23:58N 35°22' E 139°53'0 0.0
2018-Feb-11 23:22N 35°22' E 139°53'0 0.0
2018-Feb-11 22:58N 35°22' E 139°53'0 0.1
2018-Feb-11 22:28N 35°22' E 139°53'0 0.0
2018-Feb-11 21:52N 35°22' E 139°53'0 0.0
2018-Feb-11 21:28N 35°22' E 139°53'0 0.0
2018-Feb-11 20:58N 35°22' E 139°53'0 0.0
2018-Feb-11 20:16N 35°22' E 139°53'0 0.0
2018-Feb-11 19:55N 35°22' E 139°53'1 1.3
2018-Feb-11 19:30N 35°22' E 139°52'0 0.3
2018-Feb-11 19:00N 35°22' E 139°52'0 0.0
2018-Feb-11 18:30N 35°22' E 139°52'0 0.7
2018-Feb-11 18:00N 35°22' E 139°52'3 5.9
2018-Feb-11 17:30N 35°24' E 139°49'2 4.7
2018-Feb-11 16:59N 35°26' E 139°50'1 1.0
2018-Feb-11 16:29N 35°26' E 139°50'5 9.7
2018-Feb-11 16:00N 35°22' E 139°51'0 0.3
2018-Feb-11 15:27N 35°22' E 139°51'1 2.3
2018-Feb-11 15:00N 35°22' E 139°50'0 0.2
2018-Feb-11 14:29N 35°22' E 139°50'1 1.8
2018-Feb-11 13:57N 35°22' E 139°51'0 0.6
2018-Feb-11 13:30N 35°21' E 139°51'3 5.4
2018-Feb-11 13:00N 35°23' E 139°48'5 9.4
2018-Feb-11 12:30N 35°24' E 139°43'2 2.6
2018-Feb-11 11:54N 35°25' E 139°41'0 0.0
2018-Feb-11 11:27N 35°25' E 139°41'0 0.0
2018-Feb-11 11:00N 35°25' E 139°41'0 0.0
2018-Feb-11 10:30N 35°25' E 139°41'0 0.0
2018-Feb-11 10:00N 35°25' E 139°41'0 0.0
2018-Feb-11 09:24N 35°25' E 139°41'0 0.0
2018-Feb-11 09:00N 35°25' E 139°41'0 0.0
2018-Feb-11 08:30N 35°25' E 139°41'0 0.0
2018-Feb-11 08:00N 35°25' E 139°41'0 0.0
2018-Feb-11 07:21N 35°25' E 139°41'0 0.0
2018-Feb-11 07:00N 35°25' E 139°41'0 0.0
2018-Feb-11 06:30N 35°25' E 139°41'0 0.0
2018-Feb-11 06:00N 35°25' E 139°41'0 0.0
2018-Feb-11 05:30N 35°25' E 139°41'0 0.0
2018-Feb-11 05:00N 35°25' E 139°41'0 0.0
2018-Feb-11 04:27N 35°25' E 139°41'0 0.0
2018-Feb-11 03:57N 35°25' E 139°41'0 0.0
2018-Feb-11 03:30N 35°25' E 139°41'0 0.0
2018-Feb-11 03:00N 35°25' E 139°41'0 0.0
2018-Feb-11 02:30N 35°25' E 139°41'0 0.0
2018-Feb-11 02:00N 35°25' E 139°41'0 0.0
2018-Feb-11 01:30N 35°25' E 139°41'0 0.0
2018-Feb-11 01:00N 35°25' E 139°41'0 0.0
2018-Feb-11 00:30N 35°25' E 139°41'0 0.0
2018-Feb-11 00:00N 35°25' E 139°41'0 0.0
2018-Feb-10 23:30N 35°25' E 139°41'0 0.0
2018-Feb-10 22:57N 35°25' E 139°41'0 0.0
2018-Feb-10 22:30N 35°25' E 139°41'0 0.0
2018-Feb-10 22:00N 35°25' E 139°41'0 0.0
2018-Feb-10 21:30N 35°25' E 139°41'0 0.0
2018-Feb-10 21:00N 35°25' E 139°41'0 0.0
2018-Feb-10 20:30N 35°25' E 139°41'0 0.0
2018-Feb-10 19:57N 35°25' E 139°41'0 0.0
2018-Feb-10 19:30N 35°25' E 139°41'0 0.0
2018-Feb-10 19:00N 35°25' E 139°41'0 0.0
2018-Feb-10 18:30N 35°25' E 139°41'0 0.0
2018-Feb-10 18:00N 35°25' E 139°41'0 0.0
2018-Feb-10 17:30N 35°25' E 139°41'0 0.0
2018-Feb-10 16:57N 35°25' E 139°41'0 0.0
2018-Feb-10 16:30N 35°25' E 139°41'0 0.0
2018-Feb-10 15:57N 35°25' E 139°41'0 0.0
2018-Feb-10 15:30N 35°25' E 139°41'0 0.0
2018-Feb-10 15:00N 35°25' E 139°41'0 0.0
2018-Feb-10 14:30N 35°25' E 139°41'0 0.0
2018-Feb-10 14:00N 35°25' E 139°41'0 0.0
2018-Feb-10 13:30N 35°25' E 139°41'0 0.0
2018-Feb-10 12:57N 35°25' E 139°41'0 0.0
2018-Feb-10 12:30N 35°25' E 139°41'0 0.0
2018-Feb-10 11:57N 35°25' E 139°41'0 0.0
2018-Feb-10 11:30N 35°25' E 139°41'0 0.0
2018-Feb-10 11:00N 35°25' E 139°41'0 0.0
2018-Feb-10 10:27N 35°25' E 139°41'0 0.0
2018-Feb-10 10:00N 35°25' E 139°41'0 0.0
2018-Feb-10 09:30N 35°25' E 139°41'0 0.0
2018-Feb-10 08:57N 35°25' E 139°41'0 0.0
2018-Feb-10 08:30N 35°25' E 139°41'0 0.0
2018-Feb-10 08:00N 35°25' E 139°41'0 0.0
2018-Feb-10 07:30N 35°25' E 139°41'5 9.3
2018-Feb-10 07:00N 35°23' E 139°46'  

Dump ship's entire track history